EGKB - Biggin Hill
Distance from station: E 5mi, 14km
Updated: 10/16/2017 2:20pm
NOT Current
Few Clouds
Few Clouds
 Wind from SW
Wind: SW 18 mph , 30 km/h
Temperature: 55°F , 13°C
Dew Point: 48°F , 9°C
Humidity: 77%
Barometer: 30.06 inHg , 1018 hPa
Clouds: Few Clouds
Visibility: 6 miles , 10 km
Cloud details: Few Clouds 3000 ft
2017/10/16 21:20 EGKB 162120Z 22016KT 9999 FEW030 13/09 Q1018